sensor_id;sensor_type;location;lat;lon;timestamp;temperature;humidity
2749;DHT22;1382;52.142;11.618;2023-04-03T00:01:24;6.80;47.00
2749;DHT22;1382;52.142;11.618;2023-04-03T00:03:51;6.80;47.00
2749;DHT22;1382;52.142;11.618;2023-04-03T00:06:19;6.80;47.00
2749;DHT22;1382;52.142;11.618;2023-04-03T00:08:46;6.70;46.90
2749;DHT22;1382;52.142;11.618;2023-04-03T00:11:13;6.90;47.10
2749;DHT22;1382;52.142;11.618;2023-04-03T00:13:40;6.80;47.10
2749;DHT22;1382;52.142;11.618;2023-04-03T00:16:08;6.70;47.00
2749;DHT22;1382;52.142;11.618;2023-04-03T00:18:35;6.70;47.00
2749;DHT22;1382;52.142;11.618;2023-04-03T00:21:03;6.60;46.90
2749;DHT22;1382;52.142;11.618;2023-04-03T00:23:31;6.60;46.90
2749;DHT22;1382;52.142;11.618;2023-04-03T00:25:58;6.60;47.00
2749;DHT22;1382;52.142;11.618;2023-04-03T00:28:25;6.60;47.00
2749;DHT22;1382;52.142;11.618;2023-04-03T00:30:52;6.60;47.00
2749;DHT22;1382;52.142;11.618;2023-04-03T00:33:19;6.50;46.90
2749;DHT22;1382;52.142;11.618;2023-04-03T00:35:46;6.70;47.10
2749;DHT22;1382;52.142;11.618;2023-04-03T00:38:13;6.70;47.10
2749;DHT22;1382;52.142;11.618;2023-04-03T00:40:43;6.50;47.00
2749;DHT22;1382;52.142;11.618;2023-04-03T00:43:12;6.40;46.90
2749;DHT22;1382;52.142;11.618;2023-04-03T00:45:40;6.40;46.90
2749;DHT22;1382;52.142;11.618;2023-04-03T00:48:10;6.40;46.90
2749;DHT22;1382;52.142;11.618;2023-04-03T00:50:40;6.40;46.90
2749;DHT22;1382;52.142;11.618;2023-04-03T00:53:11;6.30;46.80
2749;DHT22;1382;52.142;11.618;2023-04-03T00:55:40;6.30;46.90
2749;DHT22;1382;52.142;11.618;2023-04-03T00:58:08;6.30;47.00
2749;DHT22;1382;52.142;11.618;2023-04-03T01:00:37;6.20;47.00
2749;DHT22;1382;52.142;11.618;2023-04-03T01:03:05;6.20;47.00
2749;DHT22;1382;52.142;11.618;2023-04-03T01:05:32;6.20;47.00
2749;DHT22;1382;52.142;11.618;2023-04-03T01:07:59;6.20;47.00
2749;DHT22;1382;52.142;11.618;2023-04-03T01:10:26;6.10;46.90
2749;DHT22;1382;52.142;11.618;2023-04-03T01:12:54;6.20;47.00
2749;DHT22;1382;52.142;11.618;2023-04-03T01:15:23;6.10;47.00
2749;DHT22;1382;52.142;11.618;2023-04-03T01:17:51;6.10;46.90
2749;DHT22;1382;52.142;11.618;2023-04-03T01:21:02;6.10;46.90
2749;DHT22;1382;52.142;11.618;2023-04-03T01:23:52;6.10;46.90
2749;DHT22;1382;52.142;11.618;2023-04-03T01:26:23;6.00;47.00
2749;DHT22;1382;52.142;11.618;2023-04-03T01:28:53;5.90;47.00
2749;DHT22;1382;52.142;11.618;2023-04-03T01:31:24;5.90;47.00
2749;DHT22;1382;52.142;11.618;2023-04-03T01:33:52;5.90;47.00
2749;DHT22;1382;52.142;11.618;2023-04-03T01:36:21;5.90;47.00
2749;DHT22;1382;52.142;11.618;2023-04-03T01:38:48;5.90;47.00
2749;DHT22;1382;52.142;11.618;2023-04-03T01:41:15;5.90;47.10
2749;DHT22;1382;52.142;11.618;2023-04-03T01:43:42;5.90;47.10
2749;DHT22;1382;52.142;11.618;2023-04-03T01:46:09;5.80;47.00
2749;DHT22;1382;52.142;11.618;2023-04-03T01:48:36;5.80;47.00
2749;DHT22;1382;52.142;11.618;2023-04-03T01:51:04;5.80;47.10
2749;DHT22;1382;52.142;11.618;2023-04-03T01:53:31;5.80;47.10
2749;DHT22;1382;52.142;11.618;2023-04-03T01:55:58;5.70;47.00
2749;DHT22;1382;52.142;11.618;2023-04-03T01:58:25;5.70;47.10
2749;DHT22;1382;52.142;11.618;2023-04-03T02:00:52;5.70;47.00
2749;DHT22;1382;52.142;11.618;2023-04-03T02:03:19;5.70;47.00
2749;DHT22;1382;52.142;11.618;2023-04-03T02:05:46;5.70;47.10
2749;DHT22;1382;52.142;11.618;2023-04-03T02:08:14;5.60;47.10
2749;DHT22;1382;52.142;11.618;2023-04-03T02:10:40;5.60;47.10
2749;DHT22;1382;52.142;11.618;2023-04-03T02:13:07;5.80;47.30
2749;DHT22;1382;52.142;11.618;2023-04-03T02:15:34;5.60;47.10
2749;DHT22;1382;52.142;11.618;2023-04-03T02:18:04;5.60;47.10
2749;DHT22;1382;52.142;11.618;2023-04-03T02:20:33;5.60;47.10
2749;DHT22;1382;52.142;11.618;2023-04-03T02:23:00;5.50;47.00
2749;DHT22;1382;52.142;11.618;2023-04-03T02:25:30;5.50;47.00
2749;DHT22;1382;52.142;11.618;2023-04-03T02:27:57;5.50;47.00
2749;DHT22;1382;52.142;11.618;2023-04-03T02:30:24;5.50;47.00
2749;DHT22;1382;52.142;11.618;2023-04-03T02:32:51;5.50;47.00
2749;DHT22;1382;52.142;11.618;2023-04-03T02:35:18;5.50;47.00
2749;DHT22;1382;52.142;11.618;2023-04-03T02:37:45;5.50;47.00
2749;DHT22;1382;52.142;11.618;2023-04-03T02:40:12;5.40;46.90
2749;DHT22;1382;52.142;11.618;2023-04-03T02:42:40;5.40;46.90
2749;DHT22;1382;52.142;11.618;2023-04-03T02:45:07;5.60;47.10
2749;DHT22;1382;52.142;11.618;2023-04-03T02:47:34;5.40;46.90
2749;DHT22;1382;52.142;11.618;2023-04-03T02:50:01;5.40;46.90
2749;DHT22;1382;52.142;11.618;2023-04-03T02:52:28;5.40;46.90
2749;DHT22;1382;52.142;11.618;2023-04-03T02:54:54;5.30;46.80
2749;DHT22;1382;52.142;11.618;2023-04-03T02:57:21;5.30;46.90
2749;DHT22;1382;52.142;11.618;2023-04-03T02:59:49;5.50;47.10
2749;DHT22;1382;52.142;11.618;2023-04-03T03:02:16;5.50;47.00
2749;DHT22;1382;52.142;11.618;2023-04-03T03:04:42;5.30;46.80
2749;DHT22;1382;52.142;11.618;2023-04-03T03:07:09;5.30;46.80
2749;DHT22;1382;52.142;11.618;2023-04-03T03:09:36;5.30;46.80
2749;DHT22;1382;52.142;11.618;2023-04-03T03:12:03;5.30;46.80
2749;DHT22;1382;52.142;11.618;2023-04-03T03:14:30;5.30;47.50
2749;DHT22;1382;52.142;11.618;2023-04-03T03:16:58;5.20;46.70
2749;DHT22;1382;52.142;11.618;2023-04-03T03:19:24;5.20;46.70
2749;DHT22;1382;52.142;11.618;2023-04-03T03:21:51;5.10;46.70
2749;DHT22;1382;52.142;11.618;2023-04-03T03:24:18;5.10;46.70
2749;DHT22;1382;52.142;11.618;2023-04-03T03:26:45;5.30;46.70
2749;DHT22;1382;52.142;11.618;2023-04-03T03:29:11;5.10;46.50
2749;DHT22;1382;52.142;11.618;2023-04-03T03:31:38;5.10;46.50
2749;DHT22;1382;52.142;11.618;2023-04-03T03:34:06;5.00;46.60
2749;DHT22;1382;52.142;11.618;2023-04-03T03:36:33;5.00;46.60
2749;DHT22;1382;52.142;11.618;2023-04-03T03:39:00;5.00;46.60
2749;DHT22;1382;52.142;11.618;2023-04-03T03:41:26;4.90;46.60
2749;DHT22;1382;52.142;11.618;2023-04-03T03:43:53;4.90;46.60
2749;DHT22;1382;52.142;11.618;2023-04-03T03:46:20;4.90;46.60
2749;DHT22;1382;52.142;11.618;2023-04-03T03:48:46;4.90;46.60
2749;DHT22;1382;52.142;11.618;2023-04-03T03:51:15;4.80;46.50
2749;DHT22;1382;52.142;11.618;2023-04-03T03:53:41;4.80;46.50
2749;DHT22;1382;52.142;11.618;2023-04-03T03:56:09;4.90;46.60
2749;DHT22;1382;52.142;11.618;2023-04-03T03:58:36;4.70;46.50
2749;DHT22;1382;52.142;11.618;2023-04-03T04:01:03;4.70;46.50
2749;DHT22;1382;52.142;11.618;2023-04-03T04:03:30;4.60;46.40
2749;DHT22;1382;52.142;11.618;2023-04-03T04:05:57;4.60;46.40
2749;DHT22;1382;52.142;11.618;2023-04-03T04:08:25;4.60;46.40
2749;DHT22;1382;52.142;11.618;2023-04-03T04:10:51;4.50;46.40
2749;DHT22;1382;52.142;11.618;2023-04-03T04:13:18;4.50;46.40
2749;DHT22;1382;52.142;11.618;2023-04-03T04:15:45;4.50;46.40
2749;DHT22;1382;52.142;11.618;2023-04-03T04:18:12;4.60;46.60
2749;DHT22;1382;52.142;11.618;2023-04-03T04:20:38;4.40;46.50
2749;DHT22;1382;52.142;11.618;2023-04-03T04:23:05;4.40;46.50
2749;DHT22;1382;52.142;11.618;2023-04-03T04:25:33;4.30;46.60
2749;DHT22;1382;52.142;11.618;2023-04-03T04:28:00;4.30;46.70
2749;DHT22;1382;52.142;11.618;2023-04-03T04:30:27;4.30;46.80
2749;DHT22;1382;52.142;11.618;2023-04-03T04:32:54;4.20;46.70
2749;DHT22;1382;52.142;11.618;2023-04-03T04:35:21;4.20;46.80
2749;DHT22;1382;52.142;11.618;2023-04-03T04:37:47;4.20;46.80
2749;DHT22;1382;52.142;11.618;2023-04-03T04:40:14;4.20;46.80
2749;DHT22;1382;52.142;11.618;2023-04-03T04:42:42;4.10;46.80
2749;DHT22;1382;52.142;11.618;2023-04-03T04:45:09;4.10;46.90
2749;DHT22;1382;52.142;11.618;2023-04-03T04:47:36;4.10;47.00
2749;DHT22;1382;52.142;11.618;2023-04-03T04:50:04;4.00;47.00
2749;DHT22;1382;52.142;11.618;2023-04-03T04:52:30;4.00;47.00
2749;DHT22;1382;52.142;11.618;2023-04-03T04:54:57;4.00;47.10
2749;DHT22;1382;52.142;11.618;2023-04-03T04:57:24;4.00;47.30
2749;DHT22;1382;52.142;11.618;2023-04-03T04:59:52;4.00;47.20
2749;DHT22;1382;52.142;11.618;2023-04-03T05:02:19;4.00;47.20
2749;DHT22;1382;52.142;11.618;2023-04-03T05:04:45;3.90;47.10
2749;DHT22;1382;52.142;11.618;2023-04-03T05:07:12;3.90;47.10
2749;DHT22;1382;52.142;11.618;2023-04-03T05:09:39;3.90;47.10
2749;DHT22;1382;52.142;11.618;2023-04-03T05:12:06;3.90;47.10
2749;DHT22;1382;52.142;11.618;2023-04-03T05:14:32;3.90;47.10
2749;DHT22;1382;52.142;11.618;2023-04-03T05:17:00;3.90;47.10
2749;DHT22;1382;52.142;11.618;2023-04-03T05:19:27;3.90;47.20
2749;DHT22;1382;52.142;11.618;2023-04-03T05:21:54;3.90;47.10
2749;DHT22;1382;52.142;11.618;2023-04-03T05:24:21;3.90;47.10
2749;DHT22;1382;52.142;11.618;2023-04-03T05:26:47;3.90;47.20
2749;DHT22;1382;52.142;11.618;2023-04-03T05:29:14;3.80;47.10
2749;DHT22;1382;52.142;11.618;2023-04-03T05:31:41;3.80;47.30
2749;DHT22;1382;52.142;11.618;2023-04-03T05:34:09;4.00;47.60
2749;DHT22;1382;52.142;11.618;2023-04-03T05:36:36;3.80;47.50
2749;DHT22;1382;52.142;11.618;2023-04-03T05:39:03;3.80;47.80
2749;DHT22;1382;52.142;11.618;2023-04-03T05:41:30;3.80;48.00
2749;DHT22;1382;52.142;11.618;2023-04-03T05:43:57;3.80;48.30
2749;DHT22;1382;52.142;11.618;2023-04-03T05:46:23;3.80;48.50
2749;DHT22;1382;52.142;11.618;2023-04-03T05:48:50;3.80;48.90
2749;DHT22;1382;52.142;11.618;2023-04-03T05:51:21;3.80;49.10
2749;DHT22;1382;52.142;11.618;2023-04-03T05:53:49;3.90;50.00
2749;DHT22;1382;52.142;11.618;2023-04-03T05:56:18;3.90;49.70
2749;DHT22;1382;52.142;11.618;2023-04-03T05:58:45;3.90;50.00
2749;DHT22;1382;52.142;11.618;2023-04-03T06:01:12;4.10;50.30
2749;DHT22;1382;52.142;11.618;2023-04-03T06:03:39;4.00;50.40
2749;DHT22;1382;52.142;11.618;2023-04-03T06:06:06;4.00;50.60
2749;DHT22;1382;52.142;11.618;2023-04-03T06:11:45;4.20;51.40
2749;DHT22;1382;52.142;11.618;2023-04-03T06:14:12;4.20;51.40
2749;DHT22;1382;52.142;11.618;2023-04-03T06:16:39;4.30;51.70
2749;DHT22;1382;52.142;11.618;2023-04-03T06:19:07;4.30;51.70
2749;DHT22;1382;52.142;11.618;2023-04-03T06:21:34;4.40;51.80
2749;DHT22;1382;52.142;11.618;2023-04-03T06:24:01;4.40;51.90
2749;DHT22;1382;52.142;11.618;2023-04-03T06:26:27;4.50;52.00
2749;DHT22;1382;52.142;11.618;2023-04-03T06:28:55;4.80;52.20
2749;DHT22;1382;52.142;11.618;2023-04-03T06:31:22;4.70;52.00
2749;DHT22;1382;52.142;11.618;2023-04-03T06:33:49;4.80;51.60
2749;DHT22;1382;52.142;11.618;2023-04-03T06:36:18;4.90;51.30
2749;DHT22;1382;52.142;11.618;2023-04-03T06:38:45;5.00;51.20
2749;DHT22;1382;52.142;11.618;2023-04-03T06:41:11;5.10;51.00
2749;DHT22;1382;52.142;11.618;2023-04-03T06:43:38;5.20;51.00
2749;DHT22;1382;52.142;11.618;2023-04-03T06:46:06;5.30;50.90
2749;DHT22;1382;52.142;11.618;2023-04-03T06:48:33;5.40;51.00
2749;DHT22;1382;52.142;11.618;2023-04-03T06:51:00;5.50;51.00
2749;DHT22;1382;52.142;11.618;2023-04-03T06:53:27;5.50;51.00
2749;DHT22;1382;52.142;11.618;2023-04-03T06:55:53;5.70;51.10
2749;DHT22;1382;52.142;11.618;2023-04-03T06:58:20;5.70;51.00
2749;DHT22;1382;52.142;11.618;2023-04-03T07:00:48;5.80;51.10
2749;DHT22;1382;52.142;11.618;2023-04-03T07:03:16;6.00;51.20
2749;DHT22;1382;52.142;11.618;2023-04-03T07:05:43;6.00;51.20
2749;DHT22;1382;52.142;11.618;2023-04-03T07:08:10;6.10;51.30
2749;DHT22;1382;52.142;11.618;2023-04-03T07:10:37;6.20;51.30
2749;DHT22;1382;52.142;11.618;2023-04-03T07:13:04;6.30;51.40
2749;DHT22;1382;52.142;11.618;2023-04-03T07:15:31;6.40;51.60
2749;DHT22;1382;52.142;11.618;2023-04-03T07:17:58;6.50;51.70
2749;DHT22;1382;52.142;11.618;2023-04-03T07:20:26;6.60;51.70
2749;DHT22;1382;52.142;11.618;2023-04-03T07:22:53;6.70;51.60
2749;DHT22;1382;52.142;11.618;2023-04-03T07:25:20;6.80;51.70
2749;DHT22;1382;52.142;11.618;2023-04-03T07:27:46;6.90;51.80
2749;DHT22;1382;52.142;11.618;2023-04-03T07:30:13;7.00;51.70
2749;DHT22;1382;52.142;11.618;2023-04-03T07:32:40;7.10;51.60
2749;DHT22;1382;52.142;11.618;2023-04-03T07:35:07;7.30;51.60
2749;DHT22;1382;52.142;11.618;2023-04-03T07:37:36;7.30;51.60
2749;DHT22;1382;52.142;11.618;2023-04-03T07:40:03;7.40;51.50
2749;DHT22;1382;52.142;11.618;2023-04-03T07:42:30;7.50;51.50
2749;DHT22;1382;52.142;11.618;2023-04-03T07:44:57;7.70;51.60
2749;DHT22;1382;52.142;11.618;2023-04-03T07:47:23;7.80;51.60
2749;DHT22;1382;52.142;11.618;2023-04-03T07:49:50;7.80;51.50
2749;DHT22;1382;52.142;11.618;2023-04-03T07:52:17;8.10;51.70
2749;DHT22;1382;52.142;11.618;2023-04-03T07:54:45;8.10;51.60
2749;DHT22;1382;52.142;11.618;2023-04-03T07:57:11;8.20;51.70
2749;DHT22;1382;52.142;11.618;2023-04-03T07:59:38;8.30;51.70
2749;DHT22;1382;52.142;11.618;2023-04-03T08:02:05;8.40;51.70
2749;DHT22;1382;52.142;11.618;2023-04-03T08:04:32;8.50;51.70
2749;DHT22;1382;52.142;11.618;2023-04-03T08:06:59;8.70;51.70
2749;DHT22;1382;52.142;11.618;2023-04-03T08:09:26;8.80;51.70
2749;DHT22;1382;52.142;11.618;2023-04-03T08:11:54;8.80;51.40
2749;DHT22;1382;52.142;11.618;2023-04-03T08:14:21;8.90;51.50
2749;DHT22;1382;52.142;11.618;2023-04-03T08:16:48;9.00;51.60
2749;DHT22;1382;52.142;11.618;2023-04-03T08:19:16;9.10;51.30
2749;DHT22;1382;52.142;11.618;2023-04-03T08:21:52;9.20;51.30
2749;DHT22;1382;52.142;11.618;2023-04-03T08:24:18;9.30;51.30
2749;DHT22;1382;52.142;11.618;2023-04-03T08:26:45;9.40;51.30
2749;DHT22;1382;52.142;11.618;2023-04-03T08:29:13;9.50;51.30
2749;DHT22;1382;52.142;11.618;2023-04-03T08:31:40;9.50;51.10
2749;DHT22;1382;52.142;11.618;2023-04-03T08:34:07;9.70;50.80
2749;DHT22;1382;52.142;11.618;2023-04-03T08:36:33;9.80;50.30
2749;DHT22;1382;52.142;11.618;2023-04-03T08:39:00;9.80;50.40
2749;DHT22;1382;52.142;11.618;2023-04-03T08:41:32;9.90;50.30
2749;DHT22;1382;52.142;11.618;2023-04-03T08:44:19;10.00;48.60
2749;DHT22;1382;52.142;11.618;2023-04-03T08:47:01;10.10;48.80
2749;DHT22;1382;52.142;11.618;2023-04-03T08:49:32;10.10;48.30
2749;DHT22;1382;52.142;11.618;2023-04-03T08:52:04;10.10;48.00
2749;DHT22;1382;52.142;11.618;2023-04-03T08:54:34;10.10;48.20
2749;DHT22;1382;52.142;11.618;2023-04-03T08:57:04;10.10;48.00
2749;DHT22;1382;52.142;11.618;2023-04-03T08:59:34;10.20;48.00
2749;DHT22;1382;52.142;11.618;2023-04-03T09:02:12;10.10;47.50
2749;DHT22;1382;52.142;11.618;2023-04-03T09:04:39;10.10;47.20
2749;DHT22;1382;52.142;11.618;2023-04-03T09:07:10;10.20;47.40
2749;DHT22;1382;52.142;11.618;2023-04-03T09:09:41;10.20;47.60
2749;DHT22;1382;52.142;11.618;2023-04-03T09:12:17;10.30;47.70
2749;DHT22;1382;52.142;11.618;2023-04-03T09:14:52;10.40;47.80
2749;DHT22;1382;52.142;11.618;2023-04-03T09:17:32;10.50;48.10
2749;DHT22;1382;52.142;11.618;2023-04-03T09:20:12;10.60;47.90
2749;DHT22;1382;52.142;11.618;2023-04-03T09:22:44;10.70;47.90
2749;DHT22;1382;52.142;11.618;2023-04-03T09:25:20;10.80;47.80
2749;DHT22;1382;52.142;11.618;2023-04-03T09:27:48;10.90;47.70
2749;DHT22;1382;52.142;11.618;2023-04-03T09:30:18;11.00;47.70
2749;DHT22;1382;52.142;11.618;2023-04-03T09:32:48;11.10;47.10
2749;DHT22;1382;52.142;11.618;2023-04-03T09:35:25;11.20;47.10
2749;DHT22;1382;52.142;11.618;2023-04-03T09:38:16;11.20;47.20
2749;DHT22;1382;52.142;11.618;2023-04-03T09:40:44;11.30;46.80
2749;DHT22;1382;52.142;11.618;2023-04-03T09:43:27;11.30;47.10
2749;DHT22;1382;52.142;11.618;2023-04-03T09:45:56;11.40;46.20
2749;DHT22;1382;52.142;11.618;2023-04-03T09:48:50;11.30;45.70
2749;DHT22;1382;52.142;11.618;2023-04-03T09:51:27;11.30;45.80
2749;DHT22;1382;52.142;11.618;2023-04-03T09:53:55;11.30;45.70
2749;DHT22;1382;52.142;11.618;2023-04-03T09:56:30;11.40;45.90
2749;DHT22;1382;52.142;11.618;2023-04-03T09:59:18;11.40;45.90
2749;DHT22;1382;52.142;11.618;2023-04-03T10:01:57;11.40;46.60
2749;DHT22;1382;52.142;11.618;2023-04-03T10:04:25;11.50;45.90
2749;DHT22;1382;52.142;11.618;2023-04-03T10:06:55;11.50;46.20
2749;DHT22;1382;52.142;11.618;2023-04-03T10:09:23;11.50;46.10
2749;DHT22;1382;52.142;11.618;2023-04-03T10:12:01;11.60;47.00
2749;DHT22;1382;52.142;11.618;2023-04-03T10:14:29;11.70;47.30
2749;DHT22;1382;52.142;11.618;2023-04-03T10:17:03;11.70;46.90
2749;DHT22;1382;52.142;11.618;2023-04-03T10:19:40;11.80;47.30
2749;DHT22;1382;52.142;11.618;2023-04-03T10:22:18;11.90;47.70
2749;DHT22;1382;52.142;11.618;2023-04-03T10:24:52;12.00;47.90
2749;DHT22;1382;52.142;11.618;2023-04-03T10:27:26;12.20;48.30
2749;DHT22;1382;52.142;11.618;2023-04-03T10:30:01;12.30;47.90
2749;DHT22;1382;52.142;11.618;2023-04-03T10:32:44;12.50;48.80
2749;DHT22;1382;52.142;11.618;2023-04-03T10:35:17;12.60;48.70
2749;DHT22;1382;52.142;11.618;2023-04-03T10:37:56;12.70;48.80
2749;DHT22;1382;52.142;11.618;2023-04-03T10:40:30;12.80;47.80
2749;DHT22;1382;52.142;11.618;2023-04-03T10:43:06;12.80;47.20
2749;DHT22;1382;52.142;11.618;2023-04-03T10:45:49;13.00;46.40
2749;DHT22;1382;52.142;11.618;2023-04-03T10:48:30;13.00;46.20
2749;DHT22;1382;52.142;11.618;2023-04-03T10:51:05;13.00;47.10
2749;DHT22;1382;52.142;11.618;2023-04-03T10:53:37;13.00;46.30
2749;DHT22;1382;52.142;11.618;2023-04-03T10:56:11;13.00;46.20
2749;DHT22;1382;52.142;11.618;2023-04-03T10:58:43;13.00;45.90
2749;DHT22;1382;52.142;11.618;2023-04-03T11:01:16;12.90;45.80
2749;DHT22;1382;52.142;11.618;2023-04-03T11:03:48;12.90;45.40
2749;DHT22;1382;52.142;11.618;2023-04-03T11:06:18;12.80;45.50
2749;DHT22;1382;52.142;11.618;2023-04-03T11:08:49;12.80;45.40
2749;DHT22;1382;52.142;11.618;2023-04-03T11:11:20;12.70;45.20
2749;DHT22;1382;52.142;11.618;2023-04-03T11:13:52;12.70;46.20
2749;DHT22;1382;52.142;11.618;2023-04-03T11:16:24;12.70;45.80
2749;DHT22;1382;52.142;11.618;2023-04-03T11:18:56;12.70;45.50
2749;DHT22;1382;52.142;11.618;2023-04-03T11:21:28;12.80;45.70
2749;DHT22;1382;52.142;11.618;2023-04-03T11:23:57;12.80;46.30
2749;DHT22;1382;52.142;11.618;2023-04-03T11:26:27;12.80;45.80
2749;DHT22;1382;52.142;11.618;2023-04-03T11:28:58;12.80;45.60
2749;DHT22;1382;52.142;11.618;2023-04-03T11:31:38;12.80;45.60
2749;DHT22;1382;52.142;11.618;2023-04-03T11:34:20;12.90;44.10
2749;DHT22;1382;52.142;11.618;2023-04-03T11:36:53;12.90;44.90
2749;DHT22;1382;52.142;11.618;2023-04-03T11:39:24;12.90;44.80
2749;DHT22;1382;52.142;11.618;2023-04-03T11:41:51;12.90;46.20
2749;DHT22;1382;52.142;11.618;2023-04-03T11:44:34;13.00;45.70
2749;DHT22;1382;52.142;11.618;2023-04-03T11:47:02;13.00;45.10
2749;DHT22;1382;52.142;11.618;2023-04-03T11:49:57;13.00;45.30
2749;DHT22;1382;52.142;11.618;2023-04-03T11:52:58;13.00;45.10
2749;DHT22;1382;52.142;11.618;2023-04-03T11:55:53;13.00;44.50
2749;DHT22;1382;52.142;11.618;2023-04-03T11:58:21;12.90;44.90
2749;DHT22;1382;52.142;11.618;2023-04-03T12:00:54;12.70;44.50
2749;DHT22;1382;52.142;11.618;2023-04-03T12:06:53;12.90;45.50
2749;DHT22;1382;52.142;11.618;2023-04-03T12:09:25;13.00;45.60
2749;DHT22;1382;52.142;11.618;2023-04-03T12:11:53;13.00;46.70
2749;DHT22;1382;52.142;11.618;2023-04-03T12:14:23;13.10;47.40
2749;DHT22;1382;52.142;11.618;2023-04-03T12:16:52;13.20;47.00
2749;DHT22;1382;52.142;11.618;2023-04-03T12:19:30;13.20;46.90
2749;DHT22;1382;52.142;11.618;2023-04-03T12:22:13;13.40;47.90
2749;DHT22;1382;52.142;11.618;2023-04-03T12:24:42;13.50;46.90
2749;DHT22;1382;52.142;11.618;2023-04-03T12:27:26;13.60;47.40
2749;DHT22;1382;52.142;11.618;2023-04-03T12:29:57;13.80;46.40
2749;DHT22;1382;52.142;11.618;2023-04-03T12:32:42;13.80;45.80
2749;DHT22;1382;52.142;11.618;2023-04-03T12:35:20;14.00;46.70
2749;DHT22;1382;52.142;11.618;2023-04-03T12:38:06;14.10;46.60
2749;DHT22;1382;52.142;11.618;2023-04-03T12:40:44;14.10;47.40
2749;DHT22;1382;52.142;11.618;2023-04-03T12:43:25;14.20;42.60
2749;DHT22;1382;52.142;11.618;2023-04-03T12:45:59;14.20;45.20
2749;DHT22;1382;52.142;11.618;2023-04-03T12:48:30;14.20;45.50
2749;DHT22;1382;52.142;11.618;2023-04-03T12:50:58;14.30;45.90
2749;DHT22;1382;52.142;11.618;2023-04-03T12:53:28;14.50;46.20
2749;DHT22;1382;52.142;11.618;2023-04-03T12:56:18;14.40;45.30
2749;DHT22;1382;52.142;11.618;2023-04-03T12:58:50;14.40;44.10
2749;DHT22;1382;52.142;11.618;2023-04-03T13:01:20;14.40;45.50
2749;DHT22;1382;52.142;11.618;2023-04-03T13:03:49;14.50;45.10
2749;DHT22;1382;52.142;11.618;2023-04-03T13:06:19;14.50;44.80
2749;DHT22;1382;52.142;11.618;2023-04-03T13:08:51;14.40;43.50
2749;DHT22;1382;52.142;11.618;2023-04-03T13:11:19;14.40;43.50
2749;DHT22;1382;52.142;11.618;2023-04-03T13:13:56;14.40;43.10
2749;DHT22;1382;52.142;11.618;2023-04-03T13:16:23;14.40;42.30
2749;DHT22;1382;52.142;11.618;2023-04-03T13:18:51;14.30;41.90
2749;DHT22;1382;52.142;11.618;2023-04-03T13:21:20;14.30;41.90
2749;DHT22;1382;52.142;11.618;2023-04-03T13:23:50;14.40;39.50
2749;DHT22;1382;52.142;11.618;2023-04-03T13:26:25;14.30;42.30
2749;DHT22;1382;52.142;11.618;2023-04-03T13:28:53;14.20;42.80
2749;DHT22;1382;52.142;11.618;2023-04-03T13:31:26;14.10;42.30
2749;DHT22;1382;52.142;11.618;2023-04-03T13:33:57;14.10;42.30
2749;DHT22;1382;52.142;11.618;2023-04-03T13:36:27;14.10;43.40
2749;DHT22;1382;52.142;11.618;2023-04-03T13:39:01;14.10;42.30
2749;DHT22;1382;52.142;11.618;2023-04-03T13:41:31;14.10;41.40
2749;DHT22;1382;52.142;11.618;2023-04-03T13:44:18;14.10;41.60
2749;DHT22;1382;52.142;11.618;2023-04-03T13:46:53;14.10;37.30
2749;DHT22;1382;52.142;11.618;2023-04-03T13:49:21;14.00;41.00
2749;DHT22;1382;52.142;11.618;2023-04-03T13:51:49;14.00;41.40
2749;DHT22;1382;52.142;11.618;2023-04-03T13:54:35;14.00;41.90
2749;DHT22;1382;52.142;11.618;2023-04-03T13:57:03;14.10;42.40
2749;DHT22;1382;52.142;11.618;2023-04-03T13:59:37;14.10;42.50
2749;DHT22;1382;52.142;11.618;2023-04-03T14:02:16;14.30;42.60
2749;DHT22;1382;52.142;11.618;2023-04-03T14:04:51;14.20;42.10
2749;DHT22;1382;52.142;11.618;2023-04-03T14:07:18;14.30;41.70
2749;DHT22;1382;52.142;11.618;2023-04-03T14:09:45;14.30;42.70
2749;DHT22;1382;52.142;11.618;2023-04-03T14:12:16;14.40;41.70
2749;DHT22;1382;52.142;11.618;2023-04-03T14:14:56;14.40;41.50
2749;DHT22;1382;52.142;11.618;2023-04-03T14:17:26;14.40;41.60
2749;DHT22;1382;52.142;11.618;2023-04-03T14:19:53;14.30;42.20
2749;DHT22;1382;52.142;11.618;2023-04-03T14:22:22;14.40;40.80
2749;DHT22;1382;52.142;11.618;2023-04-03T14:24:50;14.40;40.90
2749;DHT22;1382;52.142;11.618;2023-04-03T14:27:19;14.40;40.90
2749;DHT22;1382;52.142;11.618;2023-04-03T14:29:47;14.40;40.60
2749;DHT22;1382;52.142;11.618;2023-04-03T14:32:15;14.40;38.30
2749;DHT22;1382;52.142;11.618;2023-04-03T14:34:44;14.40;40.00
2749;DHT22;1382;52.142;11.618;2023-04-03T14:37:12;14.40;40.60
2749;DHT22;1382;52.142;11.618;2023-04-03T14:39:40;14.30;40.10
2749;DHT22;1382;52.142;11.618;2023-04-03T14:42:12;14.30;40.20
2749;DHT22;1382;52.142;11.618;2023-04-03T14:44:39;14.20;39.80
2749;DHT22;1382;52.142;11.618;2023-04-03T14:47:08;14.20;40.30
2749;DHT22;1382;52.142;11.618;2023-04-03T14:49:44;14.20;40.80
2749;DHT22;1382;52.142;11.618;2023-04-03T14:52:18;14.20;40.50
2749;DHT22;1382;52.142;11.618;2023-04-03T14:54:46;14.20;40.20
2749;DHT22;1382;52.142;11.618;2023-04-03T14:57:15;14.10;41.00
2749;DHT22;1382;52.142;11.618;2023-04-03T14:59:42;14.10;39.60
2749;DHT22;1382;52.142;11.618;2023-04-03T15:02:25;14.10;40.70
2749;DHT22;1382;52.142;11.618;2023-04-03T15:04:55;14.20;40.10
2749;DHT22;1382;52.142;11.618;2023-04-03T15:07:23;14.10;40.40
2749;DHT22;1382;52.142;11.618;2023-04-03T15:09:50;14.20;41.00
2749;DHT22;1382;52.142;11.618;2023-04-03T15:12:17;14.20;40.70
2749;DHT22;1382;52.142;11.618;2023-04-03T15:14:44;14.20;40.60
2749;DHT22;1382;52.142;11.618;2023-04-03T15:17:21;14.20;40.70
2749;DHT22;1382;52.142;11.618;2023-04-03T15:19:48;14.20;41.10
2749;DHT22;1382;52.142;11.618;2023-04-03T15:22:18;14.20;40.90
2749;DHT22;1382;52.142;11.618;2023-04-03T15:24:45;14.20;39.90
2749;DHT22;1382;52.142;11.618;2023-04-03T15:27:13;14.20;39.80
2749;DHT22;1382;52.142;11.618;2023-04-03T15:29:41;14.20;40.40
2749;DHT22;1382;52.142;11.618;2023-04-03T15:32:09;14.30;39.60
2749;DHT22;1382;52.142;11.618;2023-04-03T15:34:36;14.20;40.30
2749;DHT22;1382;52.142;11.618;2023-04-03T15:37:03;14.30;40.00
2749;DHT22;1382;52.142;11.618;2023-04-03T15:39:32;14.20;39.60
2749;DHT22;1382;52.142;11.618;2023-04-03T15:41:59;14.20;39.50
2749;DHT22;1382;52.142;11.618;2023-04-03T15:44:25;14.10;39.50
2749;DHT22;1382;52.142;11.618;2023-04-03T15:46:52;14.10;39.60
2749;DHT22;1382;52.142;11.618;2023-04-03T15:49:19;14.00;39.40
2749;DHT22;1382;52.142;11.618;2023-04-03T15:51:47;14.00;39.50
2749;DHT22;1382;52.142;11.618;2023-04-03T15:54:14;14.00;40.20
2749;DHT22;1382;52.142;11.618;2023-04-03T15:56:42;13.90;39.20
2749;DHT22;1382;52.142;11.618;2023-04-03T15:59:09;14.00;39.60
2749;DHT22;1382;52.142;11.618;2023-04-03T16:01:36;13.70;39.80
2749;DHT22;1382;52.142;11.618;2023-04-03T16:04:04;13.70;39.30
2749;DHT22;1382;52.142;11.618;2023-04-03T16:06:31;13.70;39.70
2749;DHT22;1382;52.142;11.618;2023-04-03T16:08:58;13.60;38.10
2749;DHT22;1382;52.142;11.618;2023-04-03T16:11:26;13.60;39.40
2749;DHT22;1382;52.142;11.618;2023-04-03T16:13:54;13.60;39.30
2749;DHT22;1382;52.142;11.618;2023-04-03T16:16:21;13.60;39.50
2749;DHT22;1382;52.142;11.618;2023-04-03T16:18:48;13.50;39.20